Terminal Aerodrome Forecast
Issued by NWS Wilmington, OH

Home | Current Version | Previous Version | Text Only | Print | Product List | Glossary On
Versions: 1 2 3 4 5 6 7 8 9 10 11 12 13 14 15 16 17 18 19 20 21 22 23 24
514
FTUS41 KILN 291734
TAFILN
TAF
KILN 291734Z 2918/3018 07005KT P6SM -SHRA BKN020
      TEMPO 2918/2921 4SM -SHRA BR OVC015
     FM292100 03006KT P6SM VCSH OVC022
     FM300400 04006KT 4SM -SHRA BR OVC014
     FM300900 08006KT 4SM -SHRA BR OVC007
     FM301500 12006KT P6SM VCSH BKN015=

USA.gov is the U.S. government's official web portal to all federal, state and local government web resources and services.